METAR - Ísland

Uppfært síðast 25.09.2022 - kl. 15:22

SIGMET síðustu 6 klst.

BIRD SIGMET U15 VALID 251620/251820 BIRK- BIRD REYKJAVIK CTA SEV TURB FCST WI N6500 W00950 - N6110 W02000 - N6610 W05415 - N7120 W05445 - N6500 W00950 FL280/460 STNR WKN
BIRD SIGMET U14 VALID 251300/251700 BIRK- BIRD REYKJAVIK CTA SEV TURB FCST WI N6310 W02120 - N6650 W01825 - N6640 W01235 - N6300 W01335 - N6310 W02120 SFC/FL280 STNR INTSF
BIRD SIGMET U13 VALID 251220/251620 BIRK- BIRD REYKJAVIK CTA SEV TURB FCST WI N6510 W00925 - N6110 W01415 - N6110 W02320 - N6420 W05305 - N7120 W05445 - N6510 W00925 FL280/460 STNR NC

METAR síðustu 3 klst

Frá og með 1. október munu brautarskilyrði ekki birtast í METAR skeytum.
Í staðinn mun ISAVIA gefa út SNOWTAM á síðunni SNOWTAM | Isavia.

Flugv.TímiSkeyti
BIAR2022-09-25 15.00METAR BIAR 251500Z 34018KT 9999 VCSH FEW018 BKN023 OVC040 06/00 Q0998
BIAR2022-09-25 14.00METAR BIAR 251400Z 33015G25KT 9999 BKN028 OVC062 05/M00 Q0996
BIAR2022-09-25 13.00METAR BIAR 251300Z 34021G41KT 9999 FEW016 BKN023 OVC027 04/02 Q0994
BIBD2022-09-25 15.00METAR BIBD 251500Z 18004KT 070V230 9999 SCT020 BKN030 08/02 Q1004
BIBD2022-09-25 14.00METAR BIBD 251400Z VRB06G17KT 9999 SCT020 BKN030 08/02 Q1003
BIBD2022-09-25 13.00METAR BIBD 251300Z VRB06KT 9999 VCSH SCT020 BKN030 08/02 Q1002
BIEG2022-09-25 15.00METAR BIEG 251500Z 34027G53KT 6000 RADZ SCT017 BKN025 03/M00 Q0991
BIEG2022-09-25 14.00METAR BIEG 251400Z 36017G32KT 270V030 9000 -RADZ SCT028 BKN035 03/M01 Q0989
BIEG2022-09-25 13.11METAR BIEG 251311Z 24009G22KT 160V310 9999 -RA SCT027 BKN034 03/M01 Q0988
BIGR2022-09-25 14.00METAR BIGR 251400Z 34042G59KT 5000 -RA OVC017 02/01 Q0997
BIHN2022-09-25 15.00METAR BIHN 251500Z 30029G50KT 9999 FEW025 BKN050 07/M05 Q0986
BIHN2022-09-25 14.00METAR BIHN 251400Z 31028G56KT 9999 FEW020 BKN050 07/M04 Q0984
BIHN2022-09-25 13.00METAR BIHN 251300Z 32038G76KT 9999 FEW020 SCT050 09/M06 Q0984
BIHU2022-09-25 15.00METAR BIHU 251500Z 34035G55KT 8000 -SHRASN OVC014 02/01 Q0998
BIHU2022-09-25 14.00METAR BIHU 251400Z 34035G63KT 8000 -SHRASN OVC014 02/01 Q0996
BIHU2022-09-25 13.00METAR BIHU 251300Z 34035G57KT 8000 -SHRASN OVC014 03/01 Q0993
BIIS2022-09-25 15.00METAR BIIS 251500Z 21011KT 9999 SCT030 08/02 Q1003
BIIS2022-09-25 14.00METAR BIIS 251400Z 22012G24KT 9999 SCT030 08/02 Q1002
BIIS2022-09-25 13.00METAR BIIS 251300Z 23008KT 9999 BKN030 07/02 Q1001
BIKF2022-09-25 15.00METAR BIKF 251500Z 28017KT 9999 FEW036 09/02 Q1004
BIKF2022-09-25 14.30METAR BIKF 251430Z 31014KT 9999 FEW036 09/01 Q1004
BIKF2022-09-25 14.00METAR BIKF 251400Z 31015KT 9999 FEW036 08/01 Q1003
BIKF2022-09-25 13.30METAR BIKF 251330Z 33015KT 9999 FEW036 08/00 Q1003
BIKF2022-09-25 13.00METAR BIKF 251300Z 35018KT 9999 FEW040 SCT080 08/M00 Q1002
BIKF2022-09-25 12.32METAR BIKF 251232Z 35021KT 9999 FEW038 SCT080 08/M00 Q1001
BIKF2022-09-25 12.30METAR BIKF 251230Z 35022KT 9999 FEW020 SCT030 BKN043 08/M00 Q1001
BIRK2022-09-25 15.00METAR BIRK 251500Z 32016KT 9999 FEW035 09/00 Q1004
BIRK2022-09-25 14.00METAR BIRK 251400Z 32013KT 9999 FEW040 09/M01 Q1002
BIRK2022-09-25 13.00METAR BIRK 251300Z 34016KT 9999 FEW028 08/M01 Q1000
BITN2022-09-25 15.00METAR BITN 251500Z 31039G52KT 3000 RA BR OVC006 02/01 Q0991
BITN2022-09-25 14.00METAR BITN 251400Z 32043G65KT 3000 RA BR OVC006 02/02 Q0989
BITN2022-09-25 13.16METAR BITN 251316Z 32037G48KT 3000 RA BR OVC006 02/02 Q0986
BIVM2022-09-25 15.00METAR BIVM 251500Z 34024G40KT 270V070 CAVOK 09/// Q1000
BIVM2022-09-25 14.00METAR BIVM 251400Z 35033G48KT 9999 FEW022 08/M02 Q0998
BIVM2022-09-25 13.00METAR BIVM 251300Z 34021G45KT 290V050 9999 FEW021 06/01 Q0997
BIVO2022-09-25 15.00METAR BIVO 251500Z VRB13G41KT 3000 -RADZ OVC015 03/M01 Q0994
BIVO2022-09-25 14.00METAR BIVO 251400Z VRB12G41KT 3000 -RADZ OVC005 02/M01 Q0991
BIVO2022-09-25 13.00METAR BIVO 251300Z VRB19G41KT 9999 -RADZ OVC005 03/M01 Q0989

Textaspár eru skrifaðar af vakthafandi veðurfræðingi á Veðurstofu Íslands.




Aðrir tengdir vefir



Þetta vefsvæði byggir á Eplica